Kinne — PHAR — position and weather

sailwx.info

Track history (hours):
 
Tides and Currents Weather Stations Pressure Air Temp Water Temp Dewpoint Dewpoint Depression Visibility Wind Speed Wind Dir Waves Ship Positions

Kinne

Last reported at 2017-Oct-18 11:05 UTC. Time now 2017-Oct-19 13:17 UTC.
Position N 38°32' E 020°34'.

Length 89 m; draft 3.8 m.

Type: Cargo ship. MMSI: 245057000.

Date/timePositionNaut miles runAvg speedWind from/ knotsBaromVisibWave heightAir tempDewpointWater temp
2017-Oct-18 11:05N 38°32' E 020°34'110.9
2017-Oct-18 11:00N 38°32' E 020°33'510.3
2017-Oct-18 10:30N 38°35' E 020°28'1511.2
2017-Oct-18 09:08N 38°48' E 020°16'211.8
2017-Oct-18 09:00N 38°49' E 020°15'611.8
2017-Oct-18 08:30N 38°54' E 020°11'611.9
2017-Oct-18 07:59N 38°59' E 020°06'1011.5
2017-Oct-18 07:08N 39°07' E 019°59'211.5
2017-Oct-18 07:00N 39°08' E 019°58'612.0
2017-Oct-18 06:31N 39°13' E 019°54'611.9
2017-Oct-18 06:00N 39°18' E 019°49'710.7
2017-Oct-18 05:20N 39°24' E 019°44'411.0
2017-Oct-18 05:00N 39°27' E 019°41'511.0
2017-Oct-18 04:30N 39°31' E 019°37'6811.0
2017-Oct-17 22:19N 40°33' E 018°59'311.0
2017-Oct-17 22:01N 40°36' E 018°60'510.9
2017-Oct-17 21:30N 40°42' E 019°02'611.1
2017-Oct-17 21:00N 40°46' E 019°05'611.1
2017-Oct-17 20:30N 40°51' E 019°09'1911.3
2017-Oct-17 18:50N 41°08' E 019°21'411.4
2017-Oct-17 18:29N 41°12' E 019°23'611.3
2017-Oct-17 17:59N 41°16' E 019°27'2 0.2
2017-Oct-17 05:37N 41°18' E 019°27'0 0.0
2017-Oct-17 05:13N 41°18' E 019°27'0 0.0
2017-Oct-17 04:55N 41°18' E 019°27'0 0.0
2017-Oct-16 22:13N 41°18' E 019°27'0 0.0
2017-Oct-16 21:43N 41°18' E 019°27'0 0.0
2017-Oct-16 07:19N 41°18' E 019°27'1 1.3
2017-Oct-16 06:45N 41°18' E 019°27'10 2.7
2017-Oct-16 03:10N 41°09' E 019°22'2 9.3
2017-Oct-16 03:00N 41°08' E 019°21'5 9.0
2017-Oct-16 02:28N 41°06' E 019°15'4 8.9
2017-Oct-16 02:00N 41°04' E 019°10'5 9.1
2017-Oct-16 01:30N 41°02' E 019°05'5 9.0
2017-Oct-16 01:00N 41°00' E 018°59'9 9.3
2017-Oct-16 00:02N 40°51' E 018°59'0 9.4
2017-Oct-16 00:00N 40°51' E 018°59'810.0
2017-Oct-15 23:09N 40°42' E 018°58'210.3
2017-Oct-15 22:55N 40°40' E 018°58'1110.2
2017-Oct-15 21:48N 40°28' E 018°58'310.3
2017-Oct-15 21:29N 40°25' E 018°60'510.1
2017-Oct-15 21:00N 40°21' E 019°02'13 9.9
2017-Oct-15 19:43N 40°09' E 019°09'2 9.8
2017-Oct-15 19:29N 40°07' E 019°11'510.0
2017-Oct-15 19:01N 40°03' E 019°13'510.4
2017-Oct-15 18:30N 39°58' E 019°16'  
Track history (hours):
 
Tides and Currents Weather Stations Pressure Air Temp Water Temp Dewpoint Dewpoint Depression Visibility Wind Speed Wind Dir Waves Ship Positions

Kinne

Last reported at 2017-Oct-18 11:05 UTC. Time now 2017-Oct-19 13:17 UTC.
Position N 38°32' E 020°34'.

Length 89 m; draft 3.8 m.

Type: Cargo ship. MMSI: 245057000.

Date/timePositionNaut miles runAvg speedWind from/ knotsBaromVisibWave heightAir tempDewpointWater temp
2017-Oct-18 11:05N 38°32' E 020°34'110.9
2017-Oct-18 11:00N 38°32' E 020°33'510.3
2017-Oct-18 10:30N 38°35' E 020°28'1511.2
2017-Oct-18 09:08N 38°48' E 020°16'211.8
2017-Oct-18 09:00N 38°49' E 020°15'611.8
2017-Oct-18 08:30N 38°54' E 020°11'611.9
2017-Oct-18 07:59N 38°59' E 020°06'1011.5
2017-Oct-18 07:08N 39°07' E 019°59'211.5
2017-Oct-18 07:00N 39°08' E 019°58'612.0
2017-Oct-18 06:31N 39°13' E 019°54'611.9
2017-Oct-18 06:00N 39°18' E 019°49'710.7
2017-Oct-18 05:20N 39°24' E 019°44'411.0
2017-Oct-18 05:00N 39°27' E 019°41'511.0
2017-Oct-18 04:30N 39°31' E 019°37'6811.0
2017-Oct-17 22:19N 40°33' E 018°59'311.0
2017-Oct-17 22:01N 40°36' E 018°60'510.9
2017-Oct-17 21:30N 40°42' E 019°02'611.1
2017-Oct-17 21:00N 40°46' E 019°05'611.1
2017-Oct-17 20:30N 40°51' E 019°09'1911.3
2017-Oct-17 18:50N 41°08' E 019°21'411.4
2017-Oct-17 18:29N 41°12' E 019°23'611.3
2017-Oct-17 17:59N 41°16' E 019°27'2 0.2
2017-Oct-17 05:37N 41°18' E 019°27'0 0.0
2017-Oct-17 05:13N 41°18' E 019°27'0 0.0
2017-Oct-17 04:55N 41°18' E 019°27'0 0.0
2017-Oct-16 22:13N 41°18' E 019°27'0 0.0
2017-Oct-16 21:43N 41°18' E 019°27'0 0.0
2017-Oct-16 07:19N 41°18' E 019°27'1 1.3
2017-Oct-16 06:45N 41°18' E 019°27'10 2.7
2017-Oct-16 03:10N 41°09' E 019°22'2 9.3
2017-Oct-16 03:00N 41°08' E 019°21'5 9.0
2017-Oct-16 02:28N 41°06' E 019°15'4 8.9
2017-Oct-16 02:00N 41°04' E 019°10'5 9.1
2017-Oct-16 01:30N 41°02' E 019°05'5 9.0
2017-Oct-16 01:00N 41°00' E 018°59'9 9.3
2017-Oct-16 00:02N 40°51' E 018°59'0 9.4
2017-Oct-16 00:00N 40°51' E 018°59'810.0
2017-Oct-15 23:09N 40°42' E 018°58'210.3
2017-Oct-15 22:55N 40°40' E 018°58'1110.2
2017-Oct-15 21:48N 40°28' E 018°58'310.3
2017-Oct-15 21:29N 40°25' E 018°60'510.1
2017-Oct-15 21:00N 40°21' E 019°02'13 9.9
2017-Oct-15 19:43N 40°09' E 019°09'2 9.8
2017-Oct-15 19:29N 40°07' E 019°11'510.0
2017-Oct-15 19:01N 40°03' E 019°13'510.4
2017-Oct-15 18:30N 39°58' E 019°16'  

Dump ship's entire track history